Davis, Illinois
Current Conditions -  °F | °C
As of 6:35 PM on Tuesday 25 Nov 2014 (Local Time) from KFEP Reporting Station
Clear Clear  
Wind Chill:   Ceiling: Unl
Heat Index: 11°   Visibility: 10mi
Dew Point:   Wind: 6mph
Humidity: 89%   Direction: 210°SSW
Pressure: 30.15"   Gusts: NA
Location:  42.42°N, 89.41°W
Report Text: KFEP 260035Z AUTO 21005KT 10SM CLR M11/M13 A3015 RMK AO2 T11151130
Loading
Personal Weather Stations






























Interactive Weather Map New forecast layout! Learn more

10-Day Weather Forecast

Advertisements
Track Severe Weather on mobile